Terminal Aerodrome Forecast
Issued by NWS

Home | Current Version | Previous Version | Text Only | Print | Product List | Glossary On
Versions: 1 2 3 4 5 6 7 8 9 10 11 12 13 14 15
000
FTUS43 KJKL 281100
TAFSME
TAF
KSME 281128Z 2812/2912 27003KT P6SM SCT045
     FM281500 30010G18KT P6SM BKN025
     FM290000 34005KT P6SM BKN040
     FM290600 VRB03KT P6SM OVC020=

USA.gov is the U.S. government's official web portal to all federal, state and local government web resources and services.